createdAt,value
2018-05-11T00:00:58.168Z,14.46
2018-05-11T00:03:26.491Z,14.92
2018-05-11T00:05:54.796Z,16.32
2018-05-11T00:08:23.115Z,15.16
2018-05-11T00:10:51.412Z,14.54
2018-05-11T00:13:19.742Z,15.96
2018-05-11T00:15:48.055Z,15.10
2018-05-11T00:18:16.395Z,16.02
2018-05-11T00:20:44.709Z,16.90
2018-05-11T00:23:13.039Z,14.54
2018-05-11T00:25:41.343Z,14.32
2018-05-11T00:28:09.670Z,14.54
2018-05-11T00:30:37.975Z,16.46
2018-05-11T00:33:06.304Z,15.60
2018-05-11T00:35:34.606Z,15.58
2018-05-11T00:38:02.931Z,15.46
2018-05-11T00:40:31.231Z,17.82
2018-05-11T00:42:59.560Z,18.02
2018-05-11T00:45:27.863Z,23.30
2018-05-11T00:47:56.187Z,15.88
2018-05-11T00:50:24.496Z,18.16
2018-05-11T00:52:52.818Z,19.30
2018-05-11T00:55:33.063Z,15.84
2018-05-11T00:58:01.395Z,15.26
2018-05-11T01:00:29.700Z,14.36
2018-05-11T01:02:58.027Z,15.10
2018-05-11T01:05:25.564Z,13.52
2018-05-11T01:07:53.892Z,15.50
2018-05-11T01:10:22.196Z,14.92
2018-05-11T01:12:50.542Z,15.60
2018-05-11T01:15:18.867Z,14.72
2018-05-11T01:17:47.163Z,13.70
2018-05-11T01:20:15.491Z,16.10
2018-05-11T01:22:43.795Z,14.82
2018-05-11T01:25:12.126Z,14.18
2018-05-11T01:27:40.434Z,14.98
2018-05-11T01:30:07.996Z,13.90
2018-05-11T01:32:36.303Z,14.38
2018-05-11T01:35:04.643Z,14.22
2018-05-11T01:37:32.950Z,14.38
2018-05-11T01:40:01.287Z,15.44
2018-05-11T01:42:29.593Z,21.90
2018-05-11T01:44:58.779Z,30.12
2018-05-11T01:47:27.086Z,20.40
2018-05-11T01:49:55.410Z,17.90
2018-05-11T01:52:23.707Z,31.38
2018-05-11T01:54:52.019Z,20.64
2018-05-11T01:57:20.328Z,33.72
2018-05-11T01:59:48.659Z,22.88
2018-05-11T02:02:16.193Z,19.30
2018-05-11T02:04:44.513Z,20.28
2018-05-11T02:07:12.806Z,16.68
2018-05-11T02:09:41.122Z,18.28
2018-05-11T02:12:09.423Z,18.28
2018-05-11T02:14:37.757Z,15.10
2018-05-11T02:17:06.059Z,18.62
2018-05-11T02:19:34.382Z,16.20
2018-05-11T02:22:02.684Z,17.32
2018-05-11T02:24:31.016Z,16.42
2018-05-11T02:26:59.310Z,16.72
2018-05-11T02:29:27.627Z,15.12
2018-05-11T02:31:55.939Z,14.20
2018-05-11T02:34:24.291Z,14.58
2018-05-11T02:36:52.595Z,14.52
2018-05-11T02:39:20.921Z,15.90
2018-05-11T02:41:49.222Z,15.08
2018-05-11T02:44:17.547Z,14.08
2018-05-11T02:46:45.852Z,13.18
2018-05-11T02:49:14.179Z,14.94
2018-05-11T02:51:42.479Z,14.50
2018-05-11T02:54:10.790Z,12.94
2018-05-11T02:56:39.095Z,13.72
2018-05-11T02:59:06.635Z,14.06
2018-05-11T03:01:34.932Z,13.96
2018-05-11T03:04:03.255Z,12.96
2018-05-11T03:06:31.555Z,14.52
2018-05-11T03:08:59.882Z,14.18
2018-05-11T03:11:28.179Z,13.96
2018-05-11T03:13:56.506Z,12.70
2018-05-11T03:16:24.816Z,14.68
2018-05-11T03:18:53.118Z,13.26
2018-05-11T03:21:21.448Z,12.68
2018-05-11T03:23:49.748Z,14.06
2018-05-11T03:26:18.067Z,13.58
2018-05-11T03:28:46.363Z,12.90
2018-05-11T03:31:14.687Z,12.24
2018-05-11T03:33:42.992Z,13.94
2018-05-11T03:36:11.323Z,34.68
2018-05-11T03:38:39.632Z,14.72
2018-05-11T03:41:07.958Z,13.00
2018-05-11T03:43:36.255Z,12.88
2018-05-11T03:46:04.570Z,12.62
2018-05-11T03:48:32.871Z,13.12
2018-05-11T03:51:01.240Z,13.50
2018-05-11T03:53:29.526Z,13.42
2018-05-11T03:55:57.851Z,13.10
2018-05-11T03:58:26.151Z,14.16
2018-05-11T04:00:54.475Z,13.48
2018-05-11T04:03:48.455Z,12.94
2018-05-11T04:06:28.606Z,13.24
2018-05-11T04:08:56.902Z,12.94
2018-05-11T04:11:25.229Z,12.28
2018-05-11T04:13:53.523Z,12.98
2018-05-11T04:16:21.836Z,12.26
2018-05-11T04:18:50.135Z,12.22
2018-05-11T04:21:18.450Z,12.36
2018-05-11T04:23:46.748Z,12.10
2018-05-11T04:26:15.066Z,12.78
2018-05-11T04:28:43.367Z,13.32
2018-05-11T04:31:11.691Z,12.48
2018-05-11T04:33:40.007Z,11.58
2018-05-11T04:36:08.339Z,11.58
2018-05-11T04:38:36.635Z,11.62
2018-05-11T04:41:04.966Z,12.00
2018-05-11T04:43:33.271Z,11.38
2018-05-11T04:46:01.591Z,12.14
2018-05-11T04:48:29.890Z,12.60
2018-05-11T04:50:58.211Z,11.50
2018-05-11T04:53:26.519Z,12.64
2018-05-11T04:55:54.856Z,11.92
2018-05-11T04:58:23.151Z,12.48
2018-05-11T05:00:51.472Z,11.46
2018-05-11T05:03:19.768Z,13.00
2018-05-11T05:05:48.087Z,12.56
2018-05-11T05:08:16.383Z,12.20
2018-05-11T05:10:44.710Z,11.60
2018-05-11T05:13:13.002Z,11.92
2018-05-11T05:15:41.327Z,12.78
2018-05-11T05:18:09.623Z,12.40
2018-05-11T05:20:37.943Z,12.34
2018-05-11T05:23:06.250Z,12.60
2018-05-11T05:25:34.571Z,12.94
2018-05-11T05:28:02.874Z,12.76
2018-05-11T05:30:31.271Z,13.10
2018-05-11T05:32:59.605Z,14.58
2018-05-11T05:35:27.937Z,11.26
2018-05-11T05:37:56.252Z,11.46
2018-05-11T05:40:24.575Z,12.24
2018-05-11T05:42:52.878Z,12.36
2018-05-11T05:45:21.179Z,13.52
2018-05-11T05:47:49.499Z,12.68
2018-05-11T05:50:17.796Z,13.42
2018-05-11T05:52:46.119Z,12.96
2018-05-11T05:55:14.423Z,12.40
2018-05-11T05:57:42.751Z,12.68
2018-05-11T06:00:11.047Z,12.80
2018-05-11T06:02:39.381Z,12.90
2018-05-11T06:05:07.682Z,13.98
2018-05-11T06:07:36.009Z,14.32
2018-05-11T06:10:04.306Z,13.40
2018-05-11T06:12:32.624Z,15.86
2018-05-11T06:15:00.931Z,14.06
2018-05-11T06:17:28.512Z,13.32
2018-05-11T06:19:56.820Z,14.04
2018-05-11T06:22:25.144Z,13.58
2018-05-11T06:24:53.473Z,13.48
2018-05-11T06:27:21.864Z,13.86
2018-05-11T06:29:50.107Z,14.22
2018-05-11T06:32:18.448Z,13.18
2018-05-11T06:34:46.744Z,13.36
2018-05-11T06:37:15.071Z,13.50
2018-05-11T06:39:43.371Z,12.86
2018-05-11T06:42:11.692Z,12.66
2018-05-11T06:44:40.006Z,14.40
2018-05-11T06:47:08.343Z,15.88
2018-05-11T06:49:36.648Z,14.10
2018-05-11T06:52:04.967Z,14.28
2018-05-11T06:54:33.272Z,14.40
2018-05-11T06:57:01.594Z,15.62
2018-05-11T06:59:29.158Z,16.68
2018-05-11T07:01:57.482Z,16.46
2018-05-11T07:04:25.790Z,16.44
2018-05-11T07:06:54.110Z,17.50
2018-05-11T07:09:22.415Z,16.42
2018-05-11T07:11:50.746Z,16.66
2018-05-11T07:14:19.044Z,17.22
2018-05-11T07:16:47.376Z,16.60
2018-05-11T07:19:15.677Z,18.24
2018-05-11T07:21:44.003Z,18.02
2018-05-11T07:24:12.308Z,19.18
2018-05-11T07:26:40.628Z,18.32
2018-05-11T07:29:08.929Z,18.62
2018-05-11T07:31:37.255Z,17.52
2018-05-11T07:34:05.563Z,18.06
2018-05-11T07:36:33.904Z,16.86
2018-05-11T07:39:02.200Z,17.50
2018-05-11T07:41:30.531Z,18.02
2018-05-11T07:43:58.827Z,17.62
2018-05-11T07:46:27.147Z,17.96
2018-05-11T07:48:55.463Z,17.48
2018-05-11T07:51:23.770Z,17.62
2018-05-11T07:53:52.091Z,16.42
2018-05-11T07:56:20.383Z,15.80
2018-05-11T07:58:48.703Z,16.64
2018-05-11T08:01:16.239Z,16.04
2018-05-11T08:03:44.556Z,14.90
2018-05-11T08:06:12.851Z,15.70
2018-05-11T08:08:41.168Z,16.02
2018-05-11T08:11:09.472Z,15.80
2018-05-11T08:13:37.795Z,14.64
2018-05-11T08:16:06.085Z,14.50
2018-05-11T08:18:34.407Z,13.96
2018-05-11T08:21:02.703Z,14.74
2018-05-11T08:23:31.032Z,14.14
2018-05-11T08:25:59.331Z,13.44
2018-05-11T08:28:27.650Z,12.78
2018-05-11T08:30:55.951Z,13.50
2018-05-11T08:33:24.279Z,12.72
2018-05-11T08:35:52.643Z,12.70
2018-05-11T08:38:20.906Z,12.38
2018-05-11T08:40:48.435Z,10.82
2018-05-11T08:43:16.763Z,12.28
2018-05-11T08:45:45.059Z,12.92
2018-05-11T08:48:13.380Z,13.32
2018-05-11T08:50:41.679Z,11.70
2018-05-11T08:53:10.003Z,12.46
2018-05-11T08:55:38.299Z,14.02
2018-05-11T08:58:06.619Z,12.42
2018-05-11T09:00:34.910Z,12.94
2018-05-11T09:03:03.297Z,13.32
2018-05-11T09:05:30.774Z,11.68
2018-05-11T09:07:58.323Z,12.82
2018-05-11T09:10:26.640Z,12.48
2018-05-11T09:12:54.958Z,13.92
2018-05-11T09:15:23.254Z,12.20
2018-05-11T09:17:51.575Z,11.34
2018-05-11T09:20:19.873Z,14.68
2018-05-11T09:22:48.213Z,13.74
2018-05-11T09:25:16.661Z,13.16
2018-05-11T09:27:44.978Z,13.34
2018-05-11T09:30:13.266Z,11.70
2018-05-11T09:32:41.585Z,12.88
2018-05-11T09:35:09.878Z,11.94
2018-05-11T09:37:38.198Z,12.74
2018-05-11T09:40:06.491Z,12.28
2018-05-11T09:42:34.787Z,12.86
2018-05-11T09:45:03.102Z,12.62
2018-05-11T09:47:31.398Z,11.08
2018-05-11T09:49:59.705Z,9.98
2018-05-11T09:52:28.002Z,11.64
2018-05-11T09:54:55.552Z,11.46
2018-05-11T09:57:23.843Z,11.64
2018-05-11T09:59:52.158Z,12.00
2018-05-11T10:02:20.454Z,9.58
2018-05-11T10:04:48.766Z,11.40
2018-05-11T10:07:17.062Z,9.78
2018-05-11T10:09:45.387Z,10.98
2018-05-11T10:12:13.689Z,11.06
2018-05-11T10:14:42.016Z,9.94
2018-05-11T10:17:10.315Z,10.14
2018-05-11T10:19:38.643Z,10.66
2018-05-11T10:22:06.934Z,10.26
2018-05-11T10:24:35.248Z,9.92
2018-05-11T10:27:03.542Z,9.92
2018-05-11T10:29:31.868Z,9.40
2018-05-11T10:32:00.160Z,9.50
2018-05-11T10:34:28.535Z,8.68
2018-05-11T10:36:56.816Z,9.06
2018-05-11T10:39:25.135Z,8.76
2018-05-11T10:41:53.427Z,8.12
2018-05-11T10:44:21.747Z,8.66
2018-05-11T10:46:50.039Z,8.22
2018-05-11T10:49:18.355Z,8.02
2018-05-11T10:51:46.649Z,9.92
2018-05-11T10:54:14.972Z,8.58
2018-05-11T10:56:43.275Z,8.12
2018-05-11T10:59:10.826Z,7.80
2018-05-11T11:01:39.125Z,7.54
2018-05-11T11:04:07.429Z,7.42
2018-05-11T11:06:35.719Z,7.92
2018-05-11T11:09:04.031Z,7.52
2018-05-11T11:11:32.324Z,6.80
2018-05-11T11:14:00.638Z,7.46
2018-05-11T11:16:28.956Z,6.40
2018-05-11T11:18:57.266Z,6.86
2018-05-11T11:21:25.556Z,6.82
2018-05-11T11:23:53.883Z,7.66
2018-05-11T11:26:22.178Z,7.46
2018-05-11T11:28:50.490Z,7.48
2018-05-11T11:31:18.791Z,7.92
2018-05-11T11:33:47.111Z,7.10
2018-05-11T11:36:15.399Z,6.90
2018-05-11T11:38:43.723Z,7.50
2018-05-11T11:41:12.043Z,7.44
2018-05-11T11:43:40.331Z,6.62
2018-05-11T11:46:07.883Z,6.30
2018-05-11T11:48:36.167Z,5.28
2018-05-11T11:51:04.484Z,5.58
2018-05-11T11:53:32.774Z,5.52
2018-05-11T11:56:01.087Z,5.08
2018-05-11T11:58:29.380Z,5.42
2018-05-11T12:00:57.696Z,4.64
2018-05-11T12:03:25.995Z,4.92
2018-05-11T12:05:54.331Z,5.16
2018-05-11T12:08:22.631Z,4.66
2018-05-11T12:10:50.948Z,5.64
2018-05-11T12:13:19.250Z,4.80
2018-05-11T12:15:47.671Z,5.36
2018-05-11T12:18:15.886Z,6.06
2018-05-11T12:20:44.208Z,6.08
2018-05-11T12:23:12.504Z,5.56
2018-05-11T12:25:40.046Z,5.62
2018-05-11T12:28:08.343Z,5.46
2018-05-11T12:30:36.751Z,5.18
2018-05-11T12:33:04.971Z,5.70
2018-05-11T12:35:33.291Z,5.76
2018-05-11T12:38:01.576Z,5.30
2018-05-11T12:40:29.893Z,5.52
2018-05-11T12:42:58.182Z,5.62
2018-05-11T12:45:26.531Z,6.90
2018-05-11T12:47:54.835Z,5.78
2018-05-11T12:50:23.155Z,5.42
2018-05-11T12:52:51.483Z,5.26
2018-05-11T12:55:19.777Z,5.68
2018-05-11T12:57:48.073Z,5.32
2018-05-11T13:00:16.397Z,5.00
2018-05-11T13:02:44.691Z,5.28
2018-05-11T13:05:13.008Z,5.26
2018-05-11T13:07:41.300Z,5.14
2018-05-11T13:10:09.616Z,5.18
2018-05-11T13:12:37.915Z,4.88
2018-05-11T13:15:06.227Z,5.34
2018-05-11T13:17:34.524Z,5.54
2018-05-11T13:20:02.831Z,5.12
2018-05-11T13:22:31.123Z,4.80
2018-05-11T13:24:58.671Z,5.10
2018-05-11T13:27:26.187Z,4.68
2018-05-11T13:29:54.511Z,4.82
2018-05-11T13:32:22.794Z,5.00
2018-05-11T13:34:51.110Z,5.44
2018-05-11T13:37:19.398Z,5.22
2018-05-11T13:39:47.687Z,6.16
2018-05-11T13:42:16.002Z,4.52
2018-05-11T13:44:44.289Z,5.16
2018-05-11T13:47:12.606Z,4.92
2018-05-11T13:49:40.904Z,5.38
2018-05-11T13:52:09.228Z,5.20
2018-05-11T13:54:37.518Z,5.08
2018-05-11T13:57:05.826Z,4.54
2018-05-11T13:59:34.111Z,5.22
2018-05-11T14:02:02.437Z,5.10
2018-05-11T14:04:30.792Z,4.54
2018-05-11T14:06:59.071Z,4.98
2018-05-11T14:09:27.359Z,5.46
2018-05-11T14:11:55.673Z,5.14
2018-05-11T14:14:23.987Z,4.92
2018-05-11T14:16:51.531Z,4.78
2018-05-11T14:19:19.822Z,5.08
2018-05-11T14:21:48.135Z,4.96
2018-05-11T14:24:16.427Z,5.90
2018-05-11T14:26:44.738Z,4.84
2018-05-11T14:29:13.026Z,4.76
2018-05-11T14:31:41.340Z,4.82
2018-05-11T14:34:09.630Z,4.54
2018-05-11T14:36:37.944Z,4.62
2018-05-11T14:39:06.237Z,6.62
2018-05-11T14:41:34.555Z,6.50
2018-05-11T14:44:02.846Z,5.50
2018-05-11T14:46:31.171Z,5.00
2018-05-11T14:48:59.463Z,4.74
2018-05-11T14:51:27.780Z,4.88
2018-05-11T14:53:56.082Z,4.88
2018-05-11T14:56:24.399Z,4.76
2018-05-11T14:58:52.699Z,35.48
2018-05-11T15:01:21.019Z,6.28
2018-05-11T15:03:49.315Z,5.16
2018-05-11T15:06:17.635Z,4.70
2018-05-11T15:08:45.937Z,4.38
2018-05-11T15:11:14.251Z,4.74
2018-05-11T15:13:42.539Z,4.74
2018-05-11T15:16:10.845Z,4.20
2018-05-11T15:18:39.141Z,4.72
2018-05-11T15:21:06.683Z,5.36
2018-05-11T15:23:34.972Z,4.68
2018-05-11T15:26:03.287Z,4.98
2018-05-11T15:28:31.583Z,4.82
2018-05-11T15:30:59.946Z,4.52
2018-05-11T15:33:28.235Z,4.24
2018-05-11T15:35:56.543Z,5.12
2018-05-11T15:38:24.851Z,5.16
2018-05-11T15:40:53.156Z,5.38
2018-05-11T15:43:21.472Z,5.14
2018-05-11T15:45:49.759Z,4.60
2018-05-11T15:48:18.071Z,5.22
2018-05-11T15:50:46.367Z,5.06
2018-05-11T15:53:14.678Z,5.00
2018-05-11T15:55:42.970Z,5.00
2018-05-11T15:58:11.279Z,5.04
2018-05-11T16:00:39.572Z,4.80
2018-05-11T16:03:07.892Z,4.60
2018-05-11T16:05:37.117Z,5.40
2018-05-11T16:08:05.442Z,4.82
2018-05-11T16:10:33.734Z,5.02
2018-05-11T16:13:02.057Z,5.52
2018-05-11T16:15:30.358Z,5.80
2018-05-11T16:17:58.675Z,4.90
2018-05-11T16:20:27.067Z,5.38
2018-05-11T16:22:55.306Z,4.94
2018-05-11T16:25:23.599Z,5.14
2018-05-11T16:27:51.907Z,4.74
2018-05-11T16:30:20.190Z,5.26
2018-05-11T16:32:48.503Z,4.48
2018-05-11T16:35:16.790Z,4.90
2018-05-11T16:37:45.107Z,5.22
2018-05-11T16:40:13.406Z,10.08
2018-05-11T16:42:41.728Z,5.54
2018-05-11T16:45:10.019Z,5.20
2018-05-11T16:47:38.363Z,7.22
2018-05-11T16:50:06.676Z,16.74
2018-05-11T16:52:34.989Z,6.82
2018-05-11T16:55:03.305Z,8.64
2018-05-11T16:57:31.627Z,9.46
2018-05-11T16:59:59.921Z,5.94
2018-05-11T17:02:28.799Z,5.70
2018-05-11T17:04:57.100Z,4.86
2018-05-11T17:07:25.419Z,4.78
2018-05-11T17:09:53.726Z,4.92
2018-05-11T17:12:22.052Z,5.34
2018-05-11T17:14:50.340Z,5.00
2018-05-11T17:17:18.655Z,4.74
2018-05-11T17:19:46.947Z,5.38
2018-05-11T17:22:14.495Z,4.84
2018-05-11T17:24:42.787Z,5.44
2018-05-11T17:27:11.099Z,4.72
2018-05-11T17:29:39.393Z,4.92
2018-05-11T17:32:07.722Z,5.90
2018-05-11T17:34:36.007Z,4.22
2018-05-11T17:37:04.295Z,5.46
2018-05-11T17:39:32.618Z,4.82
2018-05-11T17:42:00.907Z,4.88
2018-05-11T17:44:29.228Z,4.90
2018-05-11T17:46:57.527Z,4.76
2018-05-11T17:49:25.844Z,5.18
2018-05-11T17:51:54.146Z,5.84
2018-05-11T17:54:22.467Z,6.32
2018-05-11T17:56:50.753Z,4.72
2018-05-11T17:59:19.068Z,5.20
2018-05-11T18:01:46.600Z,5.20
2018-05-11T18:04:14.910Z,5.88
2018-05-11T18:06:43.268Z,6.28
2018-05-11T18:09:11.539Z,6.04
2018-05-11T18:11:39.068Z,5.94
2018-05-11T18:14:07.402Z,7.40
2018-05-11T18:16:35.691Z,6.00
2018-05-11T18:19:04.102Z,6.30
2018-05-11T18:21:32.320Z,6.30
2018-05-11T18:24:00.640Z,6.40
2018-05-11T18:26:28.927Z,5.74
2018-05-11T18:28:57.246Z,5.50
2018-05-11T18:31:25.539Z,6.54
2018-05-11T18:33:53.852Z,6.40
2018-05-11T18:36:21.371Z,6.52
2018-05-11T18:38:49.687Z,6.90
2018-05-11T18:41:18.001Z,7.98
2018-05-11T18:43:46.311Z,8.24
2018-05-11T18:46:14.599Z,9.78
2018-05-11T18:48:42.138Z,8.64
2018-05-11T18:51:10.443Z,7.62
2018-05-11T18:53:39.229Z,7.70
2018-05-11T18:56:07.082Z,7.14
2018-05-11T18:58:35.396Z,7.28
2018-05-11T19:01:03.693Z,7.98
2018-05-11T19:03:32.016Z,7.36
2018-05-11T19:06:00.332Z,9.64
2018-05-11T19:08:28.647Z,8.58
2018-05-11T19:10:57.831Z,9.26
2018-05-11T19:13:26.145Z,9.06
2018-05-11T19:15:54.591Z,9.62
2018-05-11T19:18:22.911Z,7.18
2018-05-11T19:20:51.218Z,6.82
2018-05-11T19:23:19.550Z,6.48
2018-05-11T19:25:47.096Z,7.28
2018-05-11T19:28:15.418Z,7.06
2018-05-11T19:30:43.715Z,6.80
2018-05-11T19:33:12.034Z,6.50
2018-05-11T19:35:40.351Z,7.44
2018-05-11T19:38:08.667Z,7.52
2018-05-11T19:40:36.987Z,7.22
2018-05-11T19:43:05.271Z,7.06
2018-05-11T19:45:33.592Z,7.82
2018-05-11T19:48:01.886Z,7.90
2018-05-11T19:50:30.234Z,8.16
2018-05-11T19:52:58.527Z,7.96
2018-05-11T19:55:26.854Z,8.10
2018-05-11T19:57:55.154Z,8.74
2018-05-11T20:00:23.504Z,9.36
2018-05-11T20:02:51.794Z,8.04
2018-05-11T20:05:20.106Z,8.48
2018-05-11T20:07:48.399Z,9.22
2018-05-11T20:10:16.743Z,9.36
2018-05-11T20:12:45.050Z,10.24
2018-05-11T20:15:13.383Z,8.48
2018-05-11T20:17:41.700Z,8.46
2018-05-11T20:20:10.014Z,9.16
2018-05-11T20:22:38.317Z,8.14
2018-05-11T20:25:06.634Z,8.24
2018-05-11T20:27:34.166Z,9.18
2018-05-11T20:30:02.483Z,8.60
2018-05-11T20:32:30.800Z,9.20
2018-05-11T20:34:59.111Z,8.36
2018-05-11T20:37:27.417Z,9.14
2018-05-11T20:39:55.746Z,8.70
2018-05-11T20:42:24.046Z,8.30
2018-05-11T20:44:52.372Z,8.04
2018-05-11T20:47:19.898Z,8.82
2018-05-11T20:49:48.219Z,8.50
2018-05-11T20:52:15.758Z,8.76
2018-05-11T20:54:44.078Z,9.50
2018-05-11T20:57:12.370Z,9.24
2018-05-11T20:59:40.694Z,9.78
2018-05-11T21:02:08.991Z,8.68
2018-05-11T21:04:37.311Z,8.60
2018-05-11T21:07:05.606Z,8.22
2018-05-11T21:09:33.922Z,8.84
2018-05-11T21:12:02.218Z,8.38
2018-05-11T21:14:30.642Z,9.66
2018-05-11T21:16:58.083Z,9.12
2018-05-11T21:19:26.406Z,8.96
2018-05-11T21:21:54.698Z,9.12
2018-05-11T21:24:23.021Z,9.58
2018-05-11T21:26:51.319Z,9.52
2018-05-11T21:29:19.620Z,9.94
2018-05-11T21:31:47.943Z,9.56
2018-05-11T21:34:16.245Z,8.98
2018-05-11T21:36:44.575Z,9.58
2018-05-11T21:39:12.871Z,9.52
2018-05-11T21:41:41.195Z,13.86
2018-05-11T21:44:09.491Z,9.60
2018-05-11T21:46:37.814Z,9.10
2018-05-11T21:49:06.112Z,9.22
2018-05-11T21:51:34.430Z,9.08
2018-05-11T21:54:02.736Z,10.32
2018-05-11T21:56:31.058Z,8.98
2018-05-11T21:58:58.613Z,11.28
2018-05-11T22:01:26.939Z,9.48
2018-05-11T22:03:55.231Z,9.98
2018-05-11T22:06:23.558Z,10.04
2018-05-11T22:08:51.859Z,11.36
2018-05-11T22:11:20.179Z,15.64
2018-05-11T22:13:48.487Z,10.76
2018-05-11T22:16:16.811Z,10.26
2018-05-11T22:18:45.111Z,9.88
2018-05-11T22:21:13.434Z,10.72
2018-05-11T22:23:41.732Z,10.12
2018-05-11T22:26:10.058Z,12.84
2018-05-11T22:28:38.367Z,10.46
2018-05-11T22:31:06.686Z,10.58
2018-05-11T22:33:34.978Z,10.24
2018-05-11T22:36:03.299Z,10.40
2018-05-11T22:38:31.595Z,9.96
2018-05-11T22:40:59.918Z,14.94
2018-05-11T22:43:28.216Z,12.48
2018-05-11T22:45:56.541Z,12.44
2018-05-11T22:48:24.843Z,11.58
2018-05-11T22:50:53.167Z,16.18
2018-05-11T22:53:21.471Z,18.46
2018-05-11T22:55:49.801Z,17.40
2018-05-11T22:58:18.110Z,23.68
2018-05-11T23:00:45.666Z,14.48
2018-05-11T23:03:13.976Z,20.08
2018-05-11T23:05:42.290Z,19.96
2018-05-11T23:08:10.591Z,27.28
2018-05-11T23:10:38.907Z,18.72
2018-05-11T23:13:07.210Z,10.84
2018-05-11T23:15:35.532Z,18.76
2018-05-11T23:18:03.076Z,12.68
2018-05-11T23:20:31.399Z,22.72
2018-05-11T23:22:59.695Z,21.26
2018-05-11T23:25:27.997Z,24.98
2018-05-11T23:27:56.371Z,25.24
2018-05-11T23:30:24.671Z,22.06
2018-05-11T23:32:52.996Z,14.44
2018-05-11T23:35:21.286Z,17.30
2018-05-11T23:37:49.616Z,10.84
2018-05-11T23:40:17.911Z,10.80
2018-05-11T23:42:46.235Z,21.08
2018-05-11T23:45:13.775Z,17.90
2018-05-11T23:47:42.094Z,10.40
2018-05-11T23:50:10.387Z,10.84
2018-05-11T23:52:38.719Z,12.92
2018-05-11T23:55:07.025Z,22.32
2018-05-11T23:57:35.346Z,11.20
